createdAt,value
2018-07-12T00:00:25.531Z,95569.42
2018-07-12T00:02:53.521Z,95569.96
2018-07-12T00:05:21.569Z,95563.23
2018-07-12T00:07:49.627Z,95571.03
2018-07-12T00:10:17.657Z,95564.05
2018-07-12T00:12:45.668Z,95560.55
2018-07-12T00:15:13.692Z,95568.91
2018-07-12T00:17:41.938Z,95567.02
2018-07-12T00:20:09.963Z,95568.08
2018-07-12T00:22:38.062Z,95564.33
2018-07-12T00:25:06.104Z,95562.70
2018-07-12T00:27:34.128Z,95562.16
2018-07-12T00:30:02.162Z,95561.62
2018-07-12T00:32:30.170Z,95556.53
2018-07-12T00:34:58.199Z,95562.19
2018-07-12T00:37:26.191Z,95559.77
2018-07-12T00:39:54.233Z,95560.05
2018-07-12T00:42:22.301Z,95562.45
2018-07-12T00:44:50.418Z,95550.34
2018-07-12T00:47:18.404Z,95555.74
2018-07-12T00:49:46.404Z,95554.11
2018-07-12T00:52:14.464Z,95547.95
2018-07-12T00:54:42.719Z,95552.78
2018-07-12T00:57:11.413Z,95551.44
2018-07-12T00:59:39.557Z,95561.39
2018-07-12T01:02:07.580Z,95553.87
2018-07-12T01:04:36.124Z,95547.95
2018-07-12T01:07:04.519Z,95548.47
2018-07-12T01:09:32.535Z,95550.09
2018-07-12T01:12:00.564Z,95549.80
2018-07-12T01:14:28.550Z,95555.46
2018-07-12T01:16:56.854Z,95548.72
2018-07-12T01:19:24.869Z,95541.72
2018-07-12T01:21:52.987Z,95554.09
2018-07-12T01:24:20.996Z,95548.98
2018-07-12T01:26:49.016Z,95553.00
2018-07-12T01:29:17.022Z,95555.43
2018-07-12T01:31:45.054Z,95545.19
2018-07-12T01:34:13.033Z,95548.44
2018-07-12T01:36:41.063Z,95543.61
2018-07-12T01:39:09.071Z,95550.33
2018-07-12T01:41:37.098Z,95544.39
2018-07-12T01:44:05.104Z,95545.19
2018-07-12T01:46:33.122Z,95544.95
2018-07-12T01:49:01.167Z,95540.37
2018-07-12T01:51:29.190Z,95537.14
2018-07-12T01:53:57.193Z,95539.05
2018-07-12T01:56:25.220Z,95541.20
2018-07-12T01:58:53.225Z,95531.51
2018-07-12T02:01:21.268Z,95542.26
2018-07-12T02:03:49.286Z,95539.57
2018-07-12T02:06:17.299Z,95543.08
2018-07-12T02:08:45.307Z,95549.25
2018-07-12T02:11:13.339Z,95547.67
2018-07-12T02:13:41.348Z,95549.83
2018-07-12T02:16:09.364Z,95544.17
2018-07-12T02:18:37.355Z,95544.16
2018-07-12T02:21:05.381Z,95535.55
2018-07-12T02:23:33.374Z,95541.99
2018-07-12T02:26:01.390Z,95538.51
2018-07-12T02:28:29.488Z,95539.58
2018-07-12T02:30:57.854Z,95537.45
2018-07-12T02:33:25.999Z,95535.03
2018-07-12T02:35:54.018Z,95529.65
2018-07-12T02:38:22.051Z,95533.66
2018-07-12T02:40:50.091Z,95528.01
2018-07-12T02:43:18.163Z,95522.63
2018-07-12T02:45:46.171Z,95525.31
2018-07-12T02:48:14.241Z,95522.63
2018-07-12T02:50:42.265Z,95529.06
2018-07-12T02:53:10.283Z,95529.05
2018-07-12T02:55:38.561Z,95524.72
2018-07-12T02:58:06.588Z,95532.53
2018-07-12T03:00:34.589Z,95525.23
2018-07-12T03:03:02.655Z,95525.23
2018-07-12T03:05:30.675Z,95528.45
2018-07-12T03:07:58.742Z,95533.29
2018-07-12T03:10:26.740Z,95528.45
2018-07-12T03:12:54.764Z,95528.99
2018-07-12T03:15:22.791Z,95529.25
2018-07-12T03:17:50.835Z,95528.98
2018-07-12T03:20:18.828Z,95526.00
2018-07-12T03:22:46.861Z,95523.58
2018-07-12T03:25:14.880Z,95524.64
2018-07-12T03:27:42.915Z,95528.38
2018-07-12T03:30:10.910Z,95525.67
2018-07-12T03:32:38.949Z,95530.75
2018-07-12T03:35:06.959Z,95526.45
2018-07-12T03:37:34.991Z,95535.56
2018-07-12T03:40:02.979Z,95532.06
2018-07-12T03:42:31.000Z,95542.03
2018-07-12T03:44:59.339Z,95544.94
2018-07-12T03:47:27.357Z,95547.37
2018-07-12T03:49:55.351Z,95547.89
2018-07-12T03:52:23.389Z,95551.14
2018-07-12T03:54:51.657Z,95550.85
2018-07-12T03:57:19.688Z,95549.49
2018-07-12T03:59:47.693Z,95546.81
2018-07-12T04:02:15.826Z,95549.73
2018-07-12T04:04:43.833Z,95555.65
2018-07-12T04:07:11.867Z,95560.03
2018-07-12T04:09:39.883Z,95559.50
2018-07-12T04:12:07.922Z,95558.16
2018-07-12T04:14:35.946Z,95563.53
2018-07-12T04:17:03.975Z,95565.70
2018-07-12T04:19:31.980Z,95556.83
2018-07-12T04:22:00.026Z,95554.19
2018-07-12T04:24:28.048Z,95559.31
2018-07-12T04:26:56.245Z,95565.21
2018-07-12T04:29:24.254Z,95561.19
2018-07-12T04:31:52.313Z,95559.33
2018-07-12T04:34:20.340Z,95567.94
2018-07-12T04:36:48.405Z,95563.12
2018-07-12T04:39:16.428Z,95565.53
2018-07-12T04:41:44.472Z,95561.00
2018-07-12T04:44:12.503Z,95559.91
2018-07-12T04:46:40.499Z,95564.73
2018-07-12T04:49:08.549Z,95551.36
2018-07-12T04:51:36.570Z,95552.93
2018-07-12T04:54:04.610Z,95553.17
2018-07-12T04:56:32.602Z,95547.56
2018-07-12T04:59:00.645Z,95552.98
2018-07-12T05:01:28.663Z,95552.72
2018-07-12T05:03:56.717Z,95549.48
2018-07-12T05:06:24.748Z,95551.92
2018-07-12T05:08:52.785Z,95549.78
2018-07-12T05:11:20.844Z,95554.89
2018-07-12T05:13:48.899Z,95550.86
2018-07-12T05:16:17.010Z,95555.70
2018-07-12T05:18:44.975Z,95554.36
2018-07-12T05:21:13.007Z,95562.16
2018-07-12T05:23:41.032Z,95557.05
2018-07-12T05:26:09.051Z,95561.63
2018-07-12T05:28:37.183Z,95566.20
2018-07-12T05:31:05.421Z,95565.67
2018-07-12T05:33:33.451Z,95565.41
2018-07-12T05:36:11.571Z,95568.91
2018-07-12T05:38:41.691Z,95564.08
2018-07-12T05:41:11.755Z,95573.48
2018-07-12T05:43:41.826Z,95565.16
2018-07-12T05:46:11.851Z,95572.14
2018-07-12T05:48:41.934Z,95575.36
2018-07-12T05:51:11.997Z,95583.71
2018-07-12T05:53:42.104Z,95585.86
2018-07-12T05:56:12.175Z,95594.75
2018-07-12T05:58:42.269Z,95595.03
2018-07-12T06:01:29.028Z,95597.71
2018-07-12T06:03:59.134Z,95591.54
2018-07-12T06:06:29.215Z,95598.52
2018-07-12T06:08:59.332Z,95599.61
2018-07-12T06:11:29.398Z,95604.17
2018-07-12T06:13:59.455Z,95605.23
2018-07-12T06:16:29.543Z,95612.52
2018-07-12T06:18:59.716Z,95607.66
2018-07-12T06:21:29.807Z,95612.53
2018-07-12T06:23:59.926Z,95616.52
2018-07-12T06:26:29.978Z,95621.37
2018-07-12T06:29:00.072Z,95622.72
2018-07-12T06:31:30.155Z,95627.58
2018-07-12T06:34:00.233Z,95628.63
2018-07-12T06:36:30.299Z,95631.59
2018-07-12T06:39:00.419Z,95628.39
2018-07-12T06:41:30.523Z,95636.48
2018-07-12T06:44:00.633Z,95632.98
2018-07-12T06:46:30.732Z,95636.21
2018-07-12T06:49:00.844Z,95635.42
2018-07-12T06:51:30.886Z,95640.27
2018-07-12T06:54:00.964Z,95648.09
2018-07-12T06:56:31.009Z,95643.50
2018-07-12T06:59:01.169Z,95652.37
2018-07-12T07:01:31.207Z,95653.46
2018-07-12T07:04:01.321Z,95645.41
2018-07-12T07:06:31.403Z,95651.05
2018-07-12T07:09:01.482Z,95661.56
2018-07-12T07:11:31.570Z,95660.47
2018-07-12T07:14:01.705Z,95655.34
2018-07-12T07:16:31.790Z,95665.31
2018-07-12T07:19:01.893Z,95664.25
2018-07-12T07:21:31.982Z,95667.73
2018-07-12T07:24:02.151Z,95665.59
2018-07-12T07:26:32.215Z,95670.45
2018-07-12T07:29:02.369Z,95667.75
2018-07-12T07:31:32.478Z,95665.33
2018-07-12T07:34:02.556Z,95667.48
2018-07-12T07:36:32.202Z,95671.28
2018-07-12T07:39:02.286Z,95676.66
2018-07-12T07:41:31.930Z,95677.18
2018-07-12T07:44:02.043Z,95678.25
2018-07-12T07:46:32.106Z,95681.19
2018-07-12T07:49:02.265Z,95682.29
2018-07-12T07:51:33.209Z,95687.70
2018-07-12T07:54:03.320Z,95684.73
2018-07-12T07:56:33.403Z,95678.83
2018-07-12T07:59:03.587Z,95688.53
2018-07-12T08:01:33.717Z,95695.52
2018-07-12T08:04:03.739Z,95697.95
2018-07-12T08:06:33.852Z,95694.97
2018-07-12T08:09:04.513Z,95693.10
2018-07-12T08:11:34.612Z,95700.36
2018-07-12T08:14:04.283Z,95689.59
2018-07-12T08:16:34.380Z,95689.61
2018-07-12T08:19:04.492Z,95700.10
2018-07-12T08:21:34.592Z,95696.88
2018-07-12T08:24:04.683Z,95699.30
2018-07-12T08:26:34.768Z,95695.80
2018-07-12T08:29:04.845Z,95696.88
2018-07-12T08:31:34.963Z,95697.13
2018-07-12T08:34:05.037Z,95697.14
2018-07-12T08:36:35.122Z,95691.16
2018-07-12T08:39:05.888Z,95694.63
2018-07-12T08:41:35.995Z,95693.53
2018-07-12T08:44:06.190Z,95692.10
2018-07-12T08:46:35.922Z,95693.13
2018-07-12T08:49:06.039Z,95696.56
2018-07-12T08:51:36.119Z,95694.92
2018-07-12T08:54:06.221Z,95694.68
2018-07-12T08:56:36.361Z,95697.83
2018-07-12T08:59:06.456Z,95691.91
2018-07-12T09:01:36.676Z,95699.16
2018-07-12T09:04:06.807Z,95700.19
2018-07-12T09:06:36.955Z,95698.34
2018-07-12T09:09:08.306Z,95700.99
2018-07-12T09:11:38.450Z,95691.72
2018-07-12T09:14:08.467Z,95698.16
2018-07-12T09:16:38.593Z,95697.79
2018-07-12T09:19:08.657Z,95699.53
2018-07-12T09:21:38.784Z,95696.27
2018-07-12T09:24:08.835Z,95697.86
2018-07-12T09:26:38.948Z,95699.03
2018-07-12T09:29:09.046Z,95697.59
2018-07-12T09:31:39.155Z,95695.87
2018-07-12T09:34:09.264Z,95694.20
2018-07-12T09:36:39.402Z,95708.14
2018-07-12T09:39:09.468Z,95701.52
2018-07-12T09:41:39.595Z,95702.63
2018-07-12T09:44:09.753Z,95708.76
2018-07-12T09:46:39.839Z,95706.77
2018-07-12T09:49:09.938Z,95705.88
2018-07-12T09:51:40.026Z,95708.76
2018-07-12T09:54:10.119Z,95705.43
2018-07-12T09:56:56.739Z,95704.67
2018-07-12T09:59:26.797Z,95703.05
2018-07-12T10:02:01.980Z,95703.45
2018-07-12T10:04:32.025Z,95703.83
2018-07-12T10:07:07.126Z,95706.08
2018-07-12T10:09:42.241Z,95710.34
2018-07-12T10:12:16.284Z,95709.24
2018-07-12T10:14:51.409Z,95705.48
2018-07-12T10:17:26.507Z,95704.27
2018-07-12T10:19:56.690Z,95698.29
2018-07-12T10:22:26.707Z,95699.92
2018-07-12T10:24:56.763Z,95701.82
2018-07-12T10:27:27.115Z,95693.20
2018-07-12T10:29:57.198Z,95700.61
2018-07-12T10:32:27.450Z,95704.81
2018-07-12T10:34:57.072Z,95699.91
2018-07-12T10:37:27.303Z,95696.05
2018-07-12T10:39:57.327Z,95698.77
2018-07-12T10:42:27.423Z,95696.73
2018-07-12T10:44:57.595Z,95699.94
2018-07-12T10:47:27.703Z,95700.58
2018-07-12T10:49:57.779Z,95690.44
2018-07-12T10:52:29.698Z,95694.25
2018-07-12T10:54:59.840Z,95696.73
2018-07-12T10:57:30.036Z,95693.52
2018-07-12T11:00:00.174Z,95691.29
2018-07-12T11:02:30.547Z,95691.98
2018-07-12T11:05:00.234Z,95686.64
2018-07-12T11:07:30.569Z,95687.17
2018-07-12T11:10:00.687Z,95687.78
2018-07-12T11:12:30.900Z,95690.11
2018-07-12T11:15:01.021Z,95693.28
2018-07-12T11:17:31.288Z,95691.92
2018-07-12T11:20:01.085Z,95695.97
2018-07-12T11:22:31.251Z,95696.93
2018-07-12T11:25:01.397Z,95693.73
2018-07-12T11:27:31.652Z,95695.22
2018-07-12T11:30:01.767Z,95697.66
2018-07-12T11:32:32.018Z,95697.61
2018-07-12T11:35:01.715Z,95694.55
2018-07-12T11:37:31.930Z,95688.66
2018-07-12T11:40:02.056Z,95693.80
2018-07-12T11:42:32.262Z,95687.06
2018-07-12T11:45:02.367Z,95692.69
2018-07-12T11:47:32.820Z,95692.41
2018-07-12T11:50:02.985Z,95695.06
2018-07-12T11:52:33.214Z,95697.18
2018-07-12T11:55:03.305Z,95700.16
2018-07-12T11:57:33.546Z,95701.58
2018-07-12T12:00:03.759Z,95694.61
2018-07-12T12:02:34.024Z,95695.16
2018-07-12T12:05:04.191Z,95690.95
2018-07-12T12:07:34.758Z,95696.13
2018-07-12T12:10:04.874Z,95691.02
2018-07-12T12:12:35.073Z,95693.63
2018-07-12T12:15:05.247Z,95692.09
2018-07-12T12:17:35.446Z,95689.23
2018-07-12T12:20:05.595Z,95691.98
2018-07-12T12:22:35.793Z,95691.45
2018-07-12T12:25:05.949Z,95690.53
2018-07-12T12:27:35.819Z,95691.23
2018-07-12T12:30:05.898Z,95693.62
2018-07-12T12:32:36.130Z,95690.47
2018-07-12T12:35:06.308Z,95692.69
2018-07-12T12:37:36.496Z,95693.06
2018-07-12T12:40:06.753Z,95694.98
2018-07-12T12:42:36.991Z,95693.95
2018-07-12T12:45:07.120Z,95696.06
2018-07-12T12:47:37.456Z,95693.19
2018-07-12T12:50:08.034Z,95694.73
2018-07-12T12:52:38.131Z,95694.98
2018-07-12T12:55:08.803Z,95689.83
2018-07-12T12:57:39.409Z,95687.50
2018-07-12T13:00:09.659Z,95681.44
2018-07-12T13:02:39.831Z,95688.59
2018-07-12T13:05:09.923Z,95691.09
2018-07-12T13:07:40.172Z,95680.27
2018-07-12T13:10:10.783Z,95688.16
2018-07-12T13:12:40.937Z,95690.11
2018-07-12T13:15:11.006Z,95692.69
2018-07-12T13:17:41.167Z,95693.43
2018-07-12T13:20:11.367Z,95687.44
2018-07-12T13:22:41.559Z,95692.40
2018-07-12T13:25:11.616Z,95688.63
2018-07-12T13:27:41.814Z,95684.33
2018-07-12T13:30:11.927Z,95695.92
2018-07-12T13:32:42.076Z,95694.41
2018-07-12T13:35:12.122Z,95688.39
2018-07-12T13:37:42.213Z,95693.33
2018-07-12T13:40:12.291Z,95687.92
2018-07-12T13:42:42.393Z,95692.91
2018-07-12T13:45:12.472Z,95697.16
2018-07-12T13:47:42.562Z,95696.53
2018-07-12T13:50:12.662Z,95687.48
2018-07-12T13:52:42.726Z,95687.02
2018-07-12T13:55:12.806Z,95685.11
2018-07-12T13:57:42.975Z,95684.55
2018-07-12T14:00:13.078Z,95692.05
2018-07-12T14:02:43.175Z,95690.83
2018-07-12T14:05:13.237Z,95680.62
2018-07-12T14:07:43.014Z,95677.52
2018-07-12T14:10:13.083Z,95674.87
2018-07-12T14:12:43.140Z,95678.20
2018-07-12T14:15:13.256Z,95673.36
2018-07-12T14:17:43.420Z,95676.37
2018-07-12T14:20:13.618Z,95647.70
2018-07-12T14:22:43.695Z,95670.25
2018-07-12T14:25:13.734Z,95671.18
2018-07-12T14:27:43.757Z,95669.02
2018-07-12T14:30:13.943Z,95667.02
2018-07-12T14:32:44.019Z,95668.31
2018-07-12T14:35:14.137Z,95660.86
2018-07-12T14:37:44.218Z,95659.65
2018-07-12T14:40:14.391Z,95666.69
2018-07-12T14:42:44.522Z,95662.27
2018-07-12T14:45:14.719Z,95657.08
2018-07-12T14:47:44.758Z,95654.64
2018-07-12T14:50:14.959Z,95651.58
2018-07-12T14:52:45.091Z,95657.11
2018-07-12T14:55:15.201Z,95646.36
2018-07-12T14:57:45.188Z,95650.97
2018-07-12T15:00:15.301Z,95644.44
2018-07-12T15:02:45.574Z,95646.66
2018-07-12T15:05:15.676Z,95651.85
2018-07-12T15:07:45.345Z,95650.60
2018-07-12T15:10:15.561Z,95651.94
2018-07-12T15:12:45.607Z,95650.12
2018-07-12T15:15:15.737Z,95656.24
2018-07-12T15:17:45.812Z,95657.34
2018-07-12T15:20:15.973Z,95649.50
2018-07-12T15:22:46.031Z,95648.20
2018-07-12T15:25:16.177Z,95652.22
2018-07-12T15:27:46.236Z,95651.16
2018-07-12T15:30:16.310Z,95654.79
2018-07-12T15:32:46.371Z,95640.56
2018-07-12T15:35:17.386Z,95647.08
2018-07-12T15:37:47.433Z,95644.88
2018-07-12T15:40:17.655Z,95639.72
2018-07-12T15:42:47.776Z,95638.45
2018-07-12T15:45:17.955Z,95636.83
2018-07-12T15:47:48.309Z,95640.30
2018-07-12T15:50:24.859Z,95636.02
2018-07-12T15:52:55.175Z,95641.02
2018-07-12T15:55:25.319Z,95639.55
2018-07-12T15:57:55.359Z,95643.33
2018-07-12T16:00:25.495Z,95634.97
2018-07-12T16:02:55.775Z,95643.77
2018-07-12T16:05:25.912Z,95639.68
2018-07-12T16:07:55.958Z,95646.82
2018-07-12T16:10:26.080Z,95641.81
2018-07-12T16:12:56.172Z,95645.94
2018-07-12T16:15:26.277Z,95652.03
2018-07-12T16:17:56.343Z,95652.42
2018-07-12T16:20:26.567Z,95648.80
2018-07-12T16:22:56.624Z,95649.25
2018-07-12T16:25:26.728Z,95654.76
2018-07-12T16:27:56.875Z,95649.28
2018-07-12T16:30:26.971Z,95659.78
2018-07-12T16:32:57.055Z,95662.52
2018-07-12T16:35:27.156Z,95665.48
2018-07-12T16:37:57.349Z,95660.42
2018-07-12T16:40:27.483Z,95661.36
2018-07-12T16:42:57.579Z,95665.13
2018-07-12T16:45:27.738Z,95659.57
2018-07-12T16:47:58.306Z,95649.30
2018-07-12T16:50:28.429Z,95662.17
2018-07-12T16:52:58.497Z,95655.12
2018-07-12T16:55:28.611Z,95661.80
2018-07-12T16:57:58.731Z,95656.16
2018-07-12T17:00:28.785Z,95659.95
2018-07-12T17:02:58.882Z,95660.98
2018-07-12T17:05:28.874Z,95665.62
2018-07-12T17:07:59.040Z,95667.47
2018-07-12T17:10:29.129Z,95658.93
2018-07-12T17:12:59.237Z,95661.36
2018-07-12T17:15:29.266Z,95664.75
2018-07-12T17:17:59.377Z,95660.67
2018-07-12T17:20:29.495Z,95670.45
2018-07-12T17:22:59.604Z,95666.42
2018-07-12T17:25:29.634Z,95673.35
2018-07-12T17:27:59.691Z,95667.23
2018-07-12T17:30:29.740Z,95673.55
2018-07-12T17:32:59.856Z,95677.30
2018-07-12T17:35:29.852Z,95675.89
2018-07-12T17:38:00.761Z,95681.94
2018-07-12T17:40:30.887Z,95675.62
2018-07-12T17:43:00.912Z,95678.12
2018-07-12T17:45:30.944Z,95677.37
2018-07-12T17:48:01.062Z,95680.78
2018-07-12T17:50:31.147Z,95683.99
2018-07-12T17:53:01.282Z,95682.48
2018-07-12T17:55:31.380Z,95690.41
2018-07-12T17:58:01.483Z,95681.63
2018-07-12T18:00:31.579Z,95689.22
2018-07-12T18:03:01.856Z,95684.04
2018-07-12T18:05:32.063Z,95687.36
2018-07-12T18:08:02.161Z,95684.12
2018-07-12T18:10:32.281Z,95685.89
2018-07-12T18:13:02.393Z,95687.66
2018-07-12T18:15:32.487Z,95690.22
2018-07-12T18:18:02.615Z,95680.89
2018-07-12T18:20:32.710Z,95686.27
2018-07-12T18:23:02.788Z,95688.04
2018-07-12T18:25:32.838Z,95686.91
2018-07-12T18:28:02.935Z,95687.27
2018-07-12T18:30:33.017Z,95689.55
2018-07-12T18:33:03.456Z,95685.16
2018-07-12T18:35:33.509Z,95688.67
2018-07-12T18:38:03.657Z,95688.27
2018-07-12T18:40:33.711Z,95685.64
2018-07-12T18:43:03.835Z,95685.27
2018-07-12T18:45:33.945Z,95690.54
2018-07-12T18:48:04.489Z,95692.02
2018-07-12T18:50:34.613Z,95695.12
2018-07-12T18:53:05.063Z,95693.88
2018-07-12T18:55:35.856Z,95696.17
2018-07-12T18:58:05.980Z,95699.84
2018-07-12T19:00:36.744Z,95699.45
2018-07-12T19:03:07.057Z,95702.03
2018-07-12T19:05:37.160Z,95708.13
2018-07-12T19:08:07.368Z,95710.67
2018-07-12T19:10:37.456Z,95705.41
2018-07-12T19:13:07.637Z,95712.89
2018-07-12T19:15:37.730Z,95717.41
2018-07-12T19:18:07.851Z,95713.97
2018-07-12T19:20:38.008Z,95714.95
2018-07-12T19:23:08.619Z,95718.09
2018-07-12T19:25:38.833Z,95719.88
2018-07-12T19:28:09.308Z,95723.74
2018-07-12T19:30:39.947Z,95728.77
2018-07-12T19:33:09.995Z,95732.41
2018-07-12T19:35:40.122Z,95736.30
2018-07-12T19:38:10.355Z,95743.15
2018-07-12T19:40:40.392Z,95743.56
2018-07-12T19:43:11.151Z,95747.69
2018-07-12T19:45:41.458Z,95755.10
2018-07-12T19:48:11.809Z,95756.25
2018-07-12T19:50:41.927Z,95756.03
2018-07-12T19:53:12.073Z,95755.83
2018-07-12T19:55:42.140Z,95762.89
2018-07-12T19:58:12.166Z,95760.22
2018-07-12T20:00:42.247Z,95772.39
2018-07-12T20:03:12.315Z,95780.27
2018-07-12T20:05:42.374Z,95771.41
2018-07-12T20:08:12.568Z,95772.23
2018-07-12T20:10:42.619Z,95773.34
2018-07-12T20:13:12.641Z,95770.12
2018-07-12T20:15:42.659Z,95775.52
2018-07-12T20:18:12.702Z,95779.03
2018-07-12T20:20:42.843Z,95780.94
2018-07-12T20:23:13.376Z,95780.13
2018-07-12T20:25:43.917Z,95754.81
2018-07-12T20:28:14.133Z,95784.44
2018-07-12T20:30:44.225Z,95785.23
2018-07-12T20:33:14.323Z,95781.48
2018-07-12T20:35:44.381Z,95784.68
2018-07-12T20:38:14.371Z,95784.70
2018-07-12T20:40:44.440Z,95780.64
2018-07-12T20:43:21.285Z,95782.78
2018-07-12T20:45:51.347Z,95787.09
2018-07-12T20:48:21.343Z,95785.44
2018-07-12T20:50:51.397Z,95789.42
2018-07-12T20:53:21.397Z,95788.33
2018-07-12T20:55:51.836Z,95788.61
2018-07-12T20:58:21.853Z,95783.99
2018-07-12T21:00:52.001Z,95783.95
2018-07-12T21:03:22.047Z,95792.55
2018-07-12T21:05:52.695Z,95792.84
2018-07-12T21:08:22.813Z,95790.12
2018-07-12T21:10:52.846Z,95795.48
2018-07-12T21:13:22.869Z,95796.02
2018-07-12T21:15:53.033Z,95797.85
2018-07-12T21:18:23.041Z,95797.56
2018-07-12T21:20:53.070Z,95798.34
2018-07-12T21:23:23.075Z,95794.81
2018-07-12T21:25:53.079Z,95794.79
2018-07-12T21:28:23.102Z,95798.84
2018-07-12T21:30:53.118Z,95791.84
2018-07-12T21:33:23.158Z,95795.90
2018-07-12T21:35:53.141Z,95806.11
2018-07-12T21:38:23.171Z,95803.67
2018-07-12T21:40:53.198Z,95804.45
2018-07-12T21:43:23.203Z,95813.06
2018-07-12T21:45:53.259Z,95811.92
2018-07-12T21:48:23.278Z,95819.71
2018-07-12T21:50:53.297Z,95822.88
2018-07-12T21:53:23.264Z,95823.69
2018-07-12T21:55:53.300Z,95824.70
2018-07-12T21:58:23.409Z,95826.36
2018-07-12T22:00:53.447Z,95831.66
2018-07-12T22:03:23.543Z,95833.25
2018-07-12T22:05:53.554Z,95826.75
2018-07-12T22:08:26.137Z,95836.14
2018-07-12T22:10:57.593Z,95823.17
2018-07-12T22:13:28.399Z,95833.09
2018-07-12T22:17:01.333Z,95829.03
2018-07-12T22:19:31.324Z,95831.70
2018-07-12T22:22:01.382Z,95836.28
2018-07-12T22:24:31.373Z,95829.83
2018-07-12T22:27:01.411Z,95830.06
2018-07-12T22:29:31.413Z,95838.36
2018-07-12T22:32:01.460Z,95837.00
2018-07-12T22:34:31.533Z,95837.02
2018-07-12T22:37:01.568Z,95838.86
2018-07-12T22:39:31.567Z,95838.28
2018-07-12T22:42:01.592Z,95840.95
2018-07-12T22:44:31.601Z,95835.78
2018-07-12T22:47:01.640Z,95837.42
2018-07-12T22:49:31.641Z,95831.99
2018-07-12T22:52:01.659Z,95835.50
2018-07-12T22:54:31.671Z,95828.73
2018-07-12T22:57:01.684Z,95831.15
2018-07-12T22:59:31.663Z,95832.98
2018-07-12T23:02:08.279Z,95836.14
2018-07-12T23:04:38.580Z,95832.09
2018-07-12T23:07:09.120Z,95829.61
2018-07-12T23:09:39.459Z,95839.55
2018-07-12T23:12:09.965Z,95829.58
2018-07-12T23:14:40.320Z,95832.49
2018-07-12T23:17:10.374Z,95830.07
2018-07-12T23:19:40.016Z,95823.63
2018-07-12T23:22:10.103Z,95821.41
2018-07-12T23:24:40.279Z,95825.89
2018-07-12T23:27:10.298Z,95817.28
2018-07-12T23:29:40.327Z,95819.94
2018-07-12T23:32:10.381Z,95814.17
2018-07-12T23:34:40.452Z,95819.52
2018-07-12T23:37:10.500Z,95832.89
2018-07-12T23:39:40.531Z,95830.99
2018-07-12T23:42:10.597Z,95827.95
2018-07-12T23:44:40.667Z,95825.23
2018-07-12T23:47:10.721Z,95826.57
2018-07-12T23:49:40.736Z,95820.94
2018-07-12T23:52:10.797Z,95821.43
2018-07-12T23:54:40.807Z,95820.38
2018-07-12T23:57:10.839Z,95817.96
2018-07-12T23:59:40.873Z,95819.27
